JBU605 KEWR-KFLL
Flight info
| Callsign | JBU605 |
|---|---|
| Flight time | 2h 29m |
| Altitude | 36000 |
| Route | ELVAE NECCK WHITE Q409 CRPLR PAACK Q97 PRMUS CUUDA3 |
| Aircraft | A320/M-SDE3FGHIRWY/LB1 |
Departure
| Time | 2026-04-21 16:41 |
|---|---|
| Airport | Newark Liberty International Airport (KEWR) |
Arrival
| Time | 2026-04-21 19:10 |
|---|---|
| Airport | Fort Lauderdale Hollywood International Airport (KFLL) |
| Time | Latitude | Longitude | Altitude | Speed | Heading |
|---|---|---|---|---|---|
| 2026-04-21 16:24 | 40.68701 | -74.18687 | 22 ft | 0 kts | 271° |
| 2026-04-21 16:28 | 40.68701 | -74.18685 | 22 ft | 1 kts | 271° |
| 2026-04-21 16:28 | 40.68701 | -74.18661 | 22 ft | 3 kts | 266° |
| 2026-04-21 16:28 | 40.68703 | -74.18635 | 23 ft | 3 kts | 257° |
| 2026-04-21 16:28 | 40.68709 | -74.18611 | 23 ft | 3 kts | 236° |
| 2026-04-21 16:29 | 40.68721 | -74.18595 | 22 ft | 3 kts | 190° |
| 2026-04-21 16:29 | 40.68730 | -74.18593 | 23 ft | 1 kts | 177° |
| 2026-04-21 16:29 | 40.68731 | -74.18594 | 23 ft | 0 kts | 177° |
| 2026-04-21 16:34 | 40.68731 | -74.18593 | 23 ft | 0 kts | 177° |
| 2026-04-21 16:34 | 40.68721 | -74.18592 | 23 ft | 2 kts | 169° |
| 2026-04-21 16:34 | 40.68701 | -74.18574 | 22 ft | 5 kts | 135° |
| 2026-04-21 16:35 | 40.68675 | -74.18534 | 22 ft | 7 kts | 130° |
| 2026-04-21 16:35 | 40.68628 | -74.18497 | 22 ft | 9 kts | 168° |
| 2026-04-21 16:35 | 40.68578 | -74.18439 | 22 ft | 11 kts | 101° |
| 2026-04-21 16:35 | 40.68571 | -74.18324 | 22 ft | 14 kts | 94° |
| 2026-04-21 16:36 | 40.68568 | -74.18186 | 22 ft | 16 kts | 86° |
| 2026-04-21 16:36 | 40.68575 | -74.18025 | 22 ft | 19 kts | 96° |
| 2026-04-21 16:36 | 40.68520 | -74.17861 | 23 ft | 21 kts | 116° |
| 2026-04-21 16:36 | 40.68465 | -74.17710 | 22 ft | 14 kts | 115° |
| 2026-04-21 16:37 | 40.68422 | -74.17593 | 22 ft | 12 kts | 114° |
| 2026-04-21 16:37 | 40.68470 | -74.17514 | 23 ft | 13 kts | 27° |
| 2026-04-21 16:37 | 40.68563 | -74.17454 | 23 ft | 16 kts | 25° |
| 2026-04-21 16:37 | 40.68669 | -74.17387 | 23 ft | 18 kts | 26° |
| 2026-04-21 16:38 | 40.68789 | -74.17309 | 24 ft | 19 kts | 26° |
| 2026-04-21 16:38 | 40.68898 | -74.17241 | 22 ft | 19 kts | 25° |
| 2026-04-21 16:38 | 40.69094 | -74.17117 | 23 ft | 37 kts | 26° |
| 2026-04-21 16:38 | 40.69326 | -74.16969 | 22 ft | 37 kts | 25° |
| 2026-04-21 16:39 | 40.69564 | -74.16818 | 22 ft | 38 kts | 26° |
| 2026-04-21 16:39 | 40.69782 | -74.16678 | 21 ft | 26 kts | 26° |
| 2026-04-21 16:39 | 40.69951 | -74.16571 | 21 ft | 25 kts | 26° |
| 2026-04-21 16:39 | 40.70058 | -74.16502 | 21 ft | 5 kts | 27° |
| 2026-04-21 16:40 | 40.70064 | -74.16454 | 20 ft | 7 kts | 96° |
| 2026-04-21 16:40 | 40.70054 | -74.16374 | 19 ft | 10 kts | 122° |
| 2026-04-21 16:40 | 40.69982 | -74.16392 | 19 ft | 13 kts | 206° |
| 2026-04-21 16:40 | 40.69791 | -74.16513 | 22 ft | 62 kts | 206° |
| 2026-04-21 16:41 | 40.69213 | -74.16881 | 22 ft | 120 kts | 206° |
| 2026-04-21 16:41 | 40.68315 | -74.17454 | 28 ft | 165 kts | 206° |
| 2026-04-21 16:41 | 40.67275 | -74.18109 | 568 ft | 164 kts | 206° |
| 2026-04-21 16:41 | 40.66133 | -74.18365 | 1134 ft | 172 kts | 171° |
| 2026-04-21 16:42 | 40.64919 | -74.18070 | 1595 ft | 187 kts | 182° |
| 2026-04-21 16:42 | 40.63704 | -74.18731 | 1827 ft | 207 kts | 225° |
| 2026-04-21 16:42 | 40.62686 | -74.20253 | 2162 ft | 232 kts | 229° |
| 2026-04-21 16:42 | 40.61507 | -74.21789 | 2731 ft | 248 kts | 219° |
| 2026-04-21 16:43 | 40.60097 | -74.23134 | 3646 ft | 253 kts | 214° |
| 2026-04-21 16:43 | 40.58600 | -74.24405 | 4532 ft | 258 kts | 214° |
| 2026-04-21 16:43 | 40.57063 | -74.25661 | 5394 ft | 263 kts | 212° |
| 2026-04-21 16:43 | 40.55327 | -74.26525 | 6214 ft | 273 kts | 194° |
| 2026-04-21 16:44 | 40.53397 | -74.26708 | 6829 ft | 283 kts | 177° |
| 2026-04-21 16:44 | 40.51476 | -74.26119 | 6980 ft | 287 kts | 160° |
| 2026-04-21 16:44 | 40.49606 | -74.25169 | 7005 ft | 287 kts | 160° |
| 2026-04-21 16:44 | 40.47744 | -74.24232 | 7007 ft | 287 kts | 161° |
| 2026-04-21 16:45 | 40.45879 | -74.23299 | 7004 ft | 287 kts | 161° |
| 2026-04-21 16:45 | 40.44000 | -74.22361 | 7412 ft | 290 kts | 161° |
| 2026-04-21 16:45 | 40.42098 | -74.21411 | 8255 ft | 294 kts | 161° |
| 2026-04-21 16:45 | 40.40164 | -74.20451 | 9040 ft | 300 kts | 161° |
| 2026-04-21 16:46 | 40.38188 | -74.19476 | 9805 ft | 306 kts | 162° |
| 2026-04-21 16:46 | 40.36184 | -74.18489 | 10292 ft | 322 kts | 162° |
| 2026-04-21 16:46 | 40.34001 | -74.17484 | 10504 ft | 344 kts | 167° |
| 2026-04-21 16:46 | 40.31586 | -74.16879 | 10695 ft | 362 kts | 178° |
| 2026-04-21 16:47 | 40.29038 | -74.16850 | 11226 ft | 368 kts | 189° |
| 2026-04-21 16:47 | 40.26513 | -74.17397 | 11883 ft | 370 kts | 198° |
| 2026-04-21 16:47 | 40.23981 | -74.18157 | 12543 ft | 376 kts | 198° |
| 2026-04-21 16:47 | 40.21413 | -74.18929 | 13223 ft | 382 kts | 198° |
| 2026-04-21 16:48 | 40.18809 | -74.19711 | 13894 ft | 387 kts | 198° |
| 2026-04-21 16:48 | 40.16160 | -74.20509 | 14538 ft | 393 kts | 198° |
| 2026-04-21 16:48 | 40.13485 | -74.21314 | 15158 ft | 398 kts | 198° |
| 2026-04-21 16:48 | 40.10765 | -74.22130 | 15768 ft | 403 kts | 198° |
| 2026-04-21 16:49 | 40.08018 | -74.22950 | 16378 ft | 407 kts | 198° |
| 2026-04-21 16:49 | 40.05237 | -74.23774 | 16988 ft | 412 kts | 198° |
| 2026-04-21 16:49 | 40.02461 | -74.24729 | 17572 ft | 413 kts | 205° |
| 2026-04-21 16:49 | 39.99832 | -74.26220 | 18180 ft | 411 kts | 214° |
| 2026-04-21 16:50 | 39.97437 | -74.28213 | 18786 ft | 408 kts | 223° |
| 2026-04-21 16:50 | 39.95139 | -74.30421 | 19357 ft | 412 kts | 223° |
| 2026-04-21 16:50 | 39.92816 | -74.32640 | 19970 ft | 415 kts | 223° |
| 2026-04-21 16:50 | 39.90468 | -74.34874 | 20593 ft | 419 kts | 223° |
| 2026-04-21 16:51 | 39.88108 | -74.37118 | 21184 ft | 423 kts | 223° |
| 2026-04-21 16:51 | 39.85716 | -74.39393 | 21768 ft | 426 kts | 224° |
| 2026-04-21 16:51 | 39.83339 | -74.41654 | 22306 ft | 429 kts | 223° |
| 2026-04-21 16:51 | 39.81013 | -74.44147 | 22862 ft | 425 kts | 232° |
| 2026-04-21 16:52 | 39.78965 | -74.46845 | 23426 ft | 426 kts | 233° |
| 2026-04-21 16:52 | 39.76853 | -74.49653 | 23986 ft | 430 kts | 233° |
| 2026-04-21 16:52 | 39.74787 | -74.52401 | 24440 ft | 432 kts | 233° |
| 2026-04-21 16:52 | 39.72680 | -74.55197 | 24900 ft | 436 kts | 233° |
| 2026-04-21 16:53 | 39.70549 | -74.58016 | 25355 ft | 438 kts | 233° |
| 2026-04-21 16:53 | 39.68407 | -74.60847 | 25805 ft | 441 kts | 233° |
| 2026-04-21 16:53 | 39.66249 | -74.63699 | 26240 ft | 444 kts | 233° |
| 2026-04-21 16:53 | 39.64077 | -74.66570 | 26662 ft | 447 kts | 233° |
| 2026-04-21 16:54 | 39.61889 | -74.69458 | 27083 ft | 449 kts | 233° |
| 2026-04-21 16:54 | 39.59691 | -74.72357 | 27496 ft | 452 kts | 233° |
| 2026-04-21 16:54 | 39.57476 | -74.75266 | 27891 ft | 455 kts | 233° |
| 2026-04-21 16:54 | 39.55250 | -74.78182 | 28365 ft | 455 kts | 233° |
| 2026-04-21 16:55 | 39.53029 | -74.81090 | 28917 ft | 453 kts | 233° |
| 2026-04-21 16:55 | 39.50815 | -74.83990 | 29459 ft | 452 kts | 233° |
| 2026-04-21 16:55 | 39.48607 | -74.86888 | 29999 ft | 451 kts | 233° |
| 2026-04-21 16:55 | 39.46406 | -74.89776 | 30512 ft | 450 kts | 233° |
| 2026-04-21 16:56 | 39.44212 | -74.92654 | 30976 ft | 449 kts | 233° |
| 2026-04-21 16:56 | 39.42020 | -74.95526 | 31421 ft | 447 kts | 233° |
| 2026-04-21 16:56 | 39.39836 | -74.98384 | 31877 ft | 446 kts | 233° |
| 2026-04-21 16:56 | 39.37655 | -75.01232 | 32342 ft | 445 kts | 233° |
| 2026-04-21 16:57 | 39.35481 | -75.04066 | 32837 ft | 443 kts | 233° |
| 2026-04-21 16:57 | 39.33316 | -75.06881 | 33264 ft | 442 kts | 233° |
| 2026-04-21 16:57 | 39.31142 | -75.09701 | 33701 ft | 442 kts | 233° |
| 2026-04-21 16:57 | 39.28962 | -75.12488 | 34122 ft | 442 kts | 231° |
| 2026-04-21 16:58 | 39.26719 | -75.15208 | 34555 ft | 442 kts | 230° |
| 2026-04-21 16:58 | 39.24437 | -75.17871 | 34937 ft | 442 kts | 229° |
| 2026-04-21 16:58 | 39.22141 | -75.20494 | 35315 ft | 441 kts | 229° |
| 2026-04-21 16:58 | 39.19871 | -75.23080 | 35664 ft | 440 kts | 229° |
| 2026-04-21 16:59 | 39.17583 | -75.25700 | 36016 ft | 439 kts | 229° |
| 2026-04-21 16:59 | 39.15312 | -75.28319 | 36336 ft | 439 kts | 230° |
| 2026-04-21 16:59 | 39.13040 | -75.30962 | 36420 ft | 441 kts | 230° |
| 2026-04-21 17:00 | 39.08450 | -75.36346 | 36420 ft | 449 kts | 230° |
| 2026-04-21 17:00 | 39.04435 | -75.40712 | 36429 ft | 458 kts | 220° |
| 2026-04-21 17:00 | 39.00667 | -75.43303 | 36414 ft | 471 kts | 207° |
| 2026-04-21 17:01 | 38.97515 | -75.44555 | 36433 ft | 480 kts | 197° |
| 2026-04-21 17:01 | 38.90828 | -75.45632 | 36430 ft | 486 kts | 191° |
| 2026-04-21 17:02 | 38.84095 | -75.46554 | 36417 ft | 486 kts | 191° |
| 2026-04-21 17:02 | 38.77372 | -75.47482 | 36423 ft | 486 kts | 191° |
| 2026-04-21 17:03 | 38.70654 | -75.48408 | 36425 ft | 486 kts | 191° |
| 2026-04-21 17:03 | 38.63935 | -75.49326 | 36420 ft | 485 kts | 191° |
| 2026-04-21 17:04 | 38.57213 | -75.50234 | 36431 ft | 485 kts | 191° |
| 2026-04-21 17:04 | 38.50537 | -75.51138 | 36435 ft | 485 kts | 191° |
| 2026-04-21 17:05 | 38.43817 | -75.52051 | 36414 ft | 485 kts | 191° |
| 2026-04-21 17:05 | 38.37146 | -75.53138 | 36424 ft | 479 kts | 199° |
| 2026-04-21 17:06 | 38.31026 | -75.56066 | 36426 ft | 463 kts | 216° |
| 2026-04-21 17:06 | 38.25697 | -75.60554 | 36432 ft | 458 kts | 221° |
| 2026-04-21 17:07 | 38.21339 | -75.64358 | 36419 ft | 458 kts | 221° |
| 2026-04-21 17:07 | 38.15174 | -75.69697 | 36430 ft | 458 kts | 221° |
| 2026-04-21 17:08 | 38.09911 | -75.74257 | 36436 ft | 458 kts | 221° |
| 2026-04-21 17:08 | 38.04678 | -75.78784 | 36425 ft | 458 kts | 221° |
| 2026-04-21 17:09 | 37.96776 | -75.85616 | 36424 ft | 458 kts | 221° |
| 2026-04-21 17:09 | 37.91522 | -75.90163 | 36443 ft | 457 kts | 221° |
| 2026-04-21 17:10 | 37.86260 | -75.94703 | 36475 ft | 458 kts | 221° |
| 2026-04-21 17:10 | 37.80987 | -75.99226 | 36459 ft | 458 kts | 221° |
| 2026-04-21 17:11 | 37.75712 | -76.03729 | 36463 ft | 457 kts | 221° |
| 2026-04-21 17:11 | 37.70438 | -76.08240 | 36465 ft | 457 kts | 221° |
| 2026-04-21 17:12 | 37.65169 | -76.12751 | 36462 ft | 457 kts | 221° |
| 2026-04-21 17:12 | 37.59883 | -76.17133 | 36431 ft | 462 kts | 215° |
| 2026-04-21 17:13 | 37.54200 | -76.20941 | 36434 ft | 463 kts | 214° |
| 2026-04-21 17:13 | 37.48494 | -76.24719 | 36445 ft | 463 kts | 214° |
| 2026-04-21 17:14 | 37.43706 | -76.27884 | 36446 ft | 463 kts | 214° |
| 2026-04-21 17:14 | 37.38045 | -76.31641 | 36440 ft | 463 kts | 214° |
| 2026-04-21 17:15 | 37.32341 | -76.35423 | 36450 ft | 463 kts | 214° |
| 2026-04-21 17:15 | 37.26636 | -76.39192 | 36450 ft | 463 kts | 214° |
| 2026-04-21 17:16 | 37.20940 | -76.42957 | 36441 ft | 463 kts | 214° |
| 2026-04-21 17:16 | 37.15240 | -76.46708 | 36426 ft | 463 kts | 214° |
| 2026-04-21 17:17 | 37.09540 | -76.50461 | 36421 ft | 463 kts | 214° |
| 2026-04-21 17:17 | 37.03837 | -76.54202 | 36432 ft | 463 kts | 214° |
| 2026-04-21 17:18 | 36.98129 | -76.57936 | 36453 ft | 462 kts | 214° |
| 2026-04-21 17:18 | 36.92469 | -76.61642 | 36442 ft | 462 kts | 214° |
| 2026-04-21 17:19 | 36.86766 | -76.65368 | 36451 ft | 462 kts | 214° |
| 2026-04-21 17:19 | 36.81055 | -76.69089 | 36457 ft | 462 kts | 214° |
| 2026-04-21 17:20 | 36.75355 | -76.72804 | 36460 ft | 462 kts | 214° |
| 2026-04-21 17:20 | 36.69649 | -76.76510 | 36450 ft | 462 kts | 214° |
| 2026-04-21 17:21 | 36.63940 | -76.80212 | 36456 ft | 462 kts | 214° |
| 2026-04-21 17:21 | 36.58235 | -76.83909 | 36455 ft | 462 kts | 214° |
| 2026-04-21 17:22 | 36.52561 | -76.87582 | 36433 ft | 462 kts | 214° |
| 2026-04-21 17:22 | 36.46857 | -76.91267 | 36424 ft | 462 kts | 214° |
| 2026-04-21 17:23 | 36.41143 | -76.94944 | 36439 ft | 462 kts | 214° |
| 2026-04-21 17:23 | 36.35432 | -76.98617 | 36444 ft | 462 kts | 214° |
| 2026-04-21 17:24 | 36.29724 | -77.02282 | 36446 ft | 462 kts | 214° |
| 2026-04-21 17:24 | 36.24015 | -77.05943 | 36439 ft | 462 kts | 214° |
| 2026-04-21 17:25 | 36.18302 | -77.09603 | 36445 ft | 462 kts | 214° |
| 2026-04-21 17:25 | 36.12622 | -77.13235 | 36449 ft | 462 kts | 214° |
| 2026-04-21 17:26 | 36.06905 | -77.16880 | 36457 ft | 462 kts | 214° |
| 2026-04-21 17:26 | 36.01182 | -77.20515 | 36434 ft | 462 kts | 214° |
| 2026-04-21 17:27 | 35.95456 | -77.24161 | 36417 ft | 462 kts | 215° |
| 2026-04-21 17:27 | 35.90137 | -77.28409 | 36432 ft | 450 kts | 226° |
| 2026-04-21 17:28 | 35.85240 | -77.33159 | 36432 ft | 451 kts | 226° |
| 2026-04-21 17:28 | 35.80264 | -77.37957 | 36430 ft | 451 kts | 226° |
| 2026-04-21 17:29 | 35.75359 | -77.42680 | 36434 ft | 451 kts | 226° |
| 2026-04-21 17:29 | 35.70408 | -77.47437 | 36439 ft | 451 kts | 226° |
| 2026-04-21 17:30 | 35.65453 | -77.52188 | 36442 ft | 451 kts | 226° |
| 2026-04-21 17:30 | 35.60499 | -77.56927 | 36422 ft | 451 kts | 226° |
| 2026-04-21 17:31 | 35.55542 | -77.61662 | 36412 ft | 451 kts | 227° |
| 2026-04-21 17:31 | 35.50586 | -77.66398 | 36441 ft | 451 kts | 227° |
| 2026-04-21 17:32 | 35.45635 | -77.71130 | 36453 ft | 450 kts | 227° |
| 2026-04-21 17:32 | 35.40723 | -77.75820 | 36458 ft | 451 kts | 226° |
| 2026-04-21 17:33 | 35.35766 | -77.80522 | 36459 ft | 451 kts | 226° |
| 2026-04-21 17:33 | 35.30817 | -77.85219 | 36470 ft | 450 kts | 227° |
| 2026-04-21 17:34 | 35.25859 | -77.89928 | 36469 ft | 450 kts | 226° |
| 2026-04-21 17:34 | 35.20900 | -77.94614 | 36467 ft | 450 kts | 226° |
| 2026-04-21 17:35 | 35.15937 | -77.99295 | 36453 ft | 450 kts | 227° |
| 2026-04-21 17:35 | 35.11007 | -78.03943 | 36431 ft | 450 kts | 226° |
| 2026-04-21 17:36 | 35.06054 | -78.08604 | 36442 ft | 450 kts | 226° |
| 2026-04-21 17:36 | 35.01098 | -78.13263 | 36439 ft | 450 kts | 226° |
| 2026-04-21 17:37 | 34.96140 | -78.17920 | 36440 ft | 450 kts | 227° |
| 2026-04-21 17:37 | 34.91184 | -78.22574 | 36409 ft | 449 kts | 226° |
| 2026-04-21 17:38 | 34.86227 | -78.27218 | 36425 ft | 449 kts | 226° |
| 2026-04-21 17:38 | 34.81262 | -78.31852 | 36430 ft | 450 kts | 226° |
| 2026-04-21 17:39 | 34.76290 | -78.36472 | 36429 ft | 450 kts | 226° |
| 2026-04-21 17:39 | 34.71323 | -78.41102 | 36421 ft | 449 kts | 226° |
| 2026-04-21 17:40 | 34.66364 | -78.45721 | 36406 ft | 449 kts | 226° |
| 2026-04-21 17:40 | 34.61393 | -78.50331 | 36418 ft | 450 kts | 226° |
| 2026-04-21 17:41 | 34.56450 | -78.54911 | 36423 ft | 450 kts | 226° |
| 2026-04-21 17:41 | 34.51444 | -78.59549 | 36426 ft | 449 kts | 226° |
| 2026-04-21 17:42 | 34.46509 | -78.64115 | 36425 ft | 450 kts | 226° |
| 2026-04-21 17:42 | 34.41526 | -78.68703 | 36411 ft | 450 kts | 226° |
| 2026-04-21 17:43 | 34.36469 | -78.73186 | 36422 ft | 452 kts | 224° |
| 2026-04-21 17:43 | 34.31265 | -78.77470 | 36416 ft | 453 kts | 223° |
| 2026-04-21 17:44 | 34.26037 | -78.81717 | 36420 ft | 452 kts | 223° |
| 2026-04-21 17:44 | 34.20856 | -78.85999 | 36389 ft | 451 kts | 223° |
| 2026-04-21 17:45 | 34.15700 | -78.90311 | 36402 ft | 451 kts | 224° |
| 2026-04-21 17:45 | 34.10573 | -78.94596 | 36405 ft | 451 kts | 223° |
| 2026-04-21 17:46 | 34.05395 | -78.98892 | 36414 ft | 451 kts | 223° |
| 2026-04-21 17:46 | 34.00219 | -79.03167 | 36405 ft | 451 kts | 223° |
| 2026-04-21 17:47 | 33.95049 | -79.07439 | 36369 ft | 450 kts | 223° |
| 2026-04-21 17:47 | 33.89892 | -79.11704 | 36394 ft | 449 kts | 223° |
| 2026-04-21 17:48 | 33.84741 | -79.15959 | 36396 ft | 449 kts | 223° |
| 2026-04-21 17:48 | 33.79592 | -79.20209 | 36400 ft | 449 kts | 223° |
| 2026-04-21 17:49 | 33.74438 | -79.24447 | 36393 ft | 448 kts | 223° |
| 2026-04-21 17:49 | 33.69279 | -79.28672 | 36408 ft | 448 kts | 223° |
| 2026-04-21 17:50 | 33.64195 | -79.32883 | 36419 ft | 446 kts | 224° |
| 2026-04-21 17:50 | 33.59139 | -79.37211 | 36421 ft | 446 kts | 224° |
| 2026-04-21 17:51 | 33.54094 | -79.41539 | 36418 ft | 446 kts | 224° |
| 2026-04-21 17:51 | 33.49030 | -79.45836 | 36385 ft | 446 kts | 224° |
| 2026-04-21 17:52 | 33.43960 | -79.50110 | 36400 ft | 445 kts | 224° |
| 2026-04-21 17:52 | 33.38893 | -79.54392 | 36408 ft | 445 kts | 224° |
| 2026-04-21 17:53 | 33.33866 | -79.58633 | 36407 ft | 445 kts | 224° |
| 2026-04-21 17:53 | 33.28800 | -79.62901 | 36410 ft | 445 kts | 224° |
| 2026-04-21 17:54 | 33.23740 | -79.67155 | 36389 ft | 445 kts | 224° |
| 2026-04-21 17:54 | 33.18666 | -79.71414 | 36385 ft | 446 kts | 224° |
| 2026-04-21 17:55 | 33.13591 | -79.75669 | 36384 ft | 446 kts | 223° |
| 2026-04-21 17:55 | 33.08511 | -79.79918 | 36366 ft | 446 kts | 223° |
| 2026-04-21 17:56 | 33.03441 | -79.84160 | 36370 ft | 446 kts | 223° |
| 2026-04-21 17:56 | 32.98350 | -79.88414 | 36374 ft | 446 kts | 223° |
| 2026-04-21 17:57 | 32.93271 | -79.92654 | 36386 ft | 446 kts | 223° |
| 2026-04-21 17:57 | 32.88190 | -79.96890 | 36387 ft | 446 kts | 223° |
| 2026-04-21 17:58 | 32.83138 | -80.01087 | 36386 ft | 446 kts | 223° |
| 2026-04-21 17:58 | 32.78056 | -80.05303 | 36387 ft | 446 kts | 223° |
| 2026-04-21 17:59 | 32.72958 | -80.09531 | 36362 ft | 446 kts | 223° |
| 2026-04-21 17:59 | 32.67867 | -80.13749 | 36369 ft | 446 kts | 223° |
| 2026-04-21 18:00 | 32.62765 | -80.17969 | 36350 ft | 447 kts | 223° |
| 2026-04-21 18:00 | 32.57661 | -80.22185 | 36371 ft | 447 kts | 223° |
| 2026-04-21 18:01 | 32.52557 | -80.26379 | 36386 ft | 448 kts | 221° |
| 2026-04-21 18:01 | 32.47086 | -80.29990 | 36367 ft | 454 kts | 216° |
| 2026-04-21 18:02 | 32.41513 | -80.33509 | 36362 ft | 454 kts | 216° |
| 2026-04-21 18:02 | 32.35944 | -80.37028 | 36367 ft | 454 kts | 216° |
| 2026-04-21 18:03 | 32.30375 | -80.40544 | 36374 ft | 454 kts | 216° |
| 2026-04-21 18:03 | 32.24791 | -80.44054 | 36358 ft | 454 kts | 215° |
| 2026-04-21 18:04 | 32.20118 | -80.46991 | 36367 ft | 454 kts | 216° |
| 2026-04-21 18:04 | 32.14549 | -80.50502 | 36368 ft | 454 kts | 216° |
| 2026-04-21 18:05 | 32.08969 | -80.54002 | 36341 ft | 454 kts | 215° |
| 2026-04-21 18:05 | 32.03437 | -80.57471 | 36354 ft | 453 kts | 215° |
| 2026-04-21 18:06 | 31.97878 | -80.60957 | 36343 ft | 453 kts | 215° |
| 2026-04-21 18:06 | 31.92311 | -80.64441 | 36366 ft | 452 kts | 215° |
| 2026-04-21 18:07 | 31.86771 | -80.67898 | 36368 ft | 452 kts | 215° |
| 2026-04-21 18:07 | 31.81171 | -80.71378 | 36368 ft | 452 kts | 215° |
| 2026-04-21 18:08 | 31.75663 | -80.74810 | 36367 ft | 451 kts | 215° |
| 2026-04-21 18:08 | 31.70112 | -80.78266 | 36356 ft | 451 kts | 215° |
| 2026-04-21 18:09 | 31.64567 | -80.81719 | 36362 ft | 451 kts | 215° |
| 2026-04-21 18:09 | 31.59017 | -80.85158 | 36363 ft | 451 kts | 215° |
| 2026-04-21 18:10 | 31.53473 | -80.88580 | 36362 ft | 451 kts | 215° |
| 2026-04-21 18:10 | 31.47924 | -80.92010 | 36335 ft | 450 kts | 215° |
| 2026-04-21 18:11 | 31.42389 | -80.95431 | 36336 ft | 450 kts | 215° |
| 2026-04-21 18:11 | 31.36858 | -80.98860 | 36343 ft | 450 kts | 215° |
| 2026-04-21 18:12 | 31.31329 | -81.02280 | 36349 ft | 450 kts | 214° |
| 2026-04-21 18:12 | 31.25587 | -81.05290 | 36347 ft | 460 kts | 202° |
| 2026-04-21 18:13 | 31.19142 | -81.06252 | 36323 ft | 474 kts | 187° |
| 2026-04-21 18:13 | 31.12581 | -81.06363 | 36328 ft | 474 kts | 187° |
| 2026-04-21 18:14 | 31.02665 | -81.06580 | 36336 ft | 475 kts | 187° |
| 2026-04-21 18:15 | 30.96062 | -81.06731 | 36342 ft | 475 kts | 187° |
| 2026-04-21 18:15 | 30.89443 | -81.06865 | 36331 ft | 475 kts | 187° |
| 2026-04-21 18:16 | 30.82863 | -81.06991 | 36337 ft | 476 kts | 187° |
| 2026-04-21 18:16 | 30.76231 | -81.07124 | 36344 ft | 476 kts | 187° |
| 2026-04-21 18:17 | 30.69599 | -81.07267 | 36348 ft | 476 kts | 187° |
| 2026-04-21 18:17 | 30.62977 | -81.07406 | 36326 ft | 476 kts | 187° |
| 2026-04-21 18:18 | 30.56368 | -81.07678 | 36328 ft | 475 kts | 189° |
| 2026-04-21 18:18 | 30.49779 | -81.08137 | 36334 ft | 474 kts | 190° |
| 2026-04-21 18:19 | 30.43193 | -81.08601 | 36339 ft | 475 kts | 189° |
| 2026-04-21 18:19 | 30.36627 | -81.09002 | 36341 ft | 476 kts | 189° |
| 2026-04-21 18:20 | 30.30008 | -81.09383 | 36345 ft | 476 kts | 189° |
| 2026-04-21 18:20 | 30.23395 | -81.09767 | 36347 ft | 476 kts | 189° |
| 2026-04-21 18:21 | 30.16786 | -81.10154 | 36356 ft | 476 kts | 189° |
| 2026-04-21 18:21 | 30.10184 | -81.10559 | 36358 ft | 476 kts | 189° |
| 2026-04-21 18:22 | 30.03564 | -81.10960 | 36340 ft | 476 kts | 189° |
| 2026-04-21 18:22 | 29.96949 | -81.11353 | 36347 ft | 477 kts | 189° |
| 2026-04-21 18:23 | 29.90319 | -81.11745 | 36352 ft | 477 kts | 189° |
| 2026-04-21 18:23 | 29.83671 | -81.11852 | 36352 ft | 485 kts | 180° |
| 2026-04-21 18:24 | 29.77089 | -81.09938 | 36322 ft | 499 kts | 161° |
| 2026-04-21 18:24 | 29.70701 | -81.06789 | 36330 ft | 500 kts | 161° |
| 2026-04-21 18:25 | 29.64300 | -81.03648 | 36331 ft | 500 kts | 161° |
| 2026-04-21 18:25 | 29.57878 | -81.00512 | 36334 ft | 501 kts | 161° |
| 2026-04-21 18:26 | 29.51465 | -80.97387 | 36315 ft | 501 kts | 162° |
| 2026-04-21 18:26 | 29.45040 | -80.94259 | 36325 ft | 502 kts | 162° |
| 2026-04-21 18:27 | 29.38613 | -80.91119 | 36330 ft | 502 kts | 162° |
| 2026-04-21 18:27 | 29.32190 | -80.87976 | 36355 ft | 501 kts | 162° |
| 2026-04-21 18:28 | 29.25767 | -80.84854 | 36359 ft | 501 kts | 162° |
| 2026-04-21 18:28 | 29.19352 | -80.81749 | 36336 ft | 500 kts | 162° |
| 2026-04-21 18:29 | 29.12937 | -80.78652 | 36343 ft | 500 kts | 162° |
| 2026-04-21 18:29 | 29.06526 | -80.75555 | 36346 ft | 500 kts | 162° |
| 2026-04-21 18:30 | 29.00117 | -80.72452 | 36343 ft | 500 kts | 162° |
| 2026-04-21 18:30 | 28.93697 | -80.69388 | 36343 ft | 500 kts | 163° |
| 2026-04-21 18:31 | 28.87259 | -80.66511 | 36316 ft | 499 kts | 164° |
| 2026-04-21 18:31 | 28.80774 | -80.63679 | 36314 ft | 499 kts | 164° |
| 2026-04-21 18:32 | 28.74299 | -80.60812 | 36323 ft | 500 kts | 164° |
| 2026-04-21 18:32 | 28.67828 | -80.57911 | 36325 ft | 500 kts | 164° |
| 2026-04-21 18:33 | 28.61352 | -80.55020 | 36308 ft | 499 kts | 164° |
| 2026-04-21 18:33 | 28.54894 | -80.52132 | 36328 ft | 499 kts | 164° |
| 2026-04-21 18:34 | 28.48423 | -80.49248 | 36332 ft | 499 kts | 164° |
| 2026-04-21 18:34 | 28.41960 | -80.46374 | 36327 ft | 498 kts | 164° |
| 2026-04-21 18:35 | 28.36589 | -80.44002 | 36329 ft | 498 kts | 164° |
| 2026-04-21 18:35 | 28.29035 | -80.40670 | 36297 ft | 498 kts | 164° |
| 2026-04-21 18:36 | 28.22615 | -80.37828 | 36305 ft | 498 kts | 164° |
| 2026-04-21 18:36 | 28.16159 | -80.34986 | 36308 ft | 498 kts | 164° |
| 2026-04-21 18:37 | 28.09690 | -80.32149 | 36315 ft | 498 kts | 164° |
| 2026-04-21 18:37 | 28.03192 | -80.29475 | 36320 ft | 496 kts | 167° |
| 2026-04-21 18:38 | 27.96659 | -80.26993 | 36310 ft | 495 kts | 167° |
| 2026-04-21 18:38 | 27.90135 | -80.24511 | 36318 ft | 495 kts | 167° |
| 2026-04-21 18:39 | 27.83616 | -80.21972 | 36323 ft | 495 kts | 166° |
| 2026-04-21 18:39 | 27.77099 | -80.19409 | 36324 ft | 495 kts | 166° |
| 2026-04-21 18:40 | 27.70584 | -80.16872 | 35639 ft | 501 kts | 166° |
| 2026-04-21 18:40 | 27.67243 | -80.15586 | 34669 ft | 510 kts | 166° |
| 2026-04-21 18:40 | 27.65017 | -80.14729 | 34038 ft | 513 kts | 165° |
| 2026-04-21 18:40 | 27.60496 | -80.12974 | 32753 ft | 514 kts | 165° |
| 2026-04-21 18:41 | 27.57118 | -80.11615 | 31777 ft | 517 kts | 164° |
| 2026-04-21 18:41 | 27.53728 | -80.10209 | 30805 ft | 520 kts | 164° |
| 2026-04-21 18:41 | 27.50325 | -80.08778 | 29714 ft | 522 kts | 163° |
| 2026-04-21 18:41 | 27.46942 | -80.07351 | 28985 ft | 516 kts | 163° |
| 2026-04-21 18:42 | 27.43600 | -80.05948 | 28289 ft | 510 kts | 164° |
| 2026-04-21 18:42 | 27.40327 | -80.04591 | 27603 ft | 506 kts | 164° |
| 2026-04-21 18:42 | 27.36983 | -80.03267 | 26906 ft | 500 kts | 166° |
| 2026-04-21 18:42 | 27.33666 | -80.02124 | 26231 ft | 495 kts | 168° |
| 2026-04-21 18:43 | 27.30403 | -80.01133 | 25577 ft | 490 kts | 170° |
| 2026-04-21 18:43 | 27.27094 | -80.00203 | 25311 ft | 476 kts | 171° |
| 2026-04-21 18:43 | 27.23932 | -79.99301 | 25202 ft | 461 kts | 169° |
| 2026-04-21 18:43 | 27.20888 | -79.98324 | 25056 ft | 450 kts | 167° |
| 2026-04-21 18:44 | 27.17945 | -79.97285 | 24579 ft | 440 kts | 166° |
| 2026-04-21 18:44 | 27.15097 | -79.96221 | 23955 ft | 434 kts | 165° |
| 2026-04-21 18:44 | 27.12214 | -79.95123 | 23177 ft | 430 kts | 165° |
| 2026-04-21 18:44 | 27.09437 | -79.94072 | 22405 ft | 423 kts | 165° |
| 2026-04-21 18:45 | 27.06663 | -79.93041 | 21703 ft | 417 kts | 165° |
| 2026-04-21 18:45 | 27.03941 | -79.92000 | 21112 ft | 411 kts | 163° |
| 2026-04-21 18:45 | 27.01250 | -79.90924 | 20662 ft | 410 kts | 163° |
| 2026-04-21 18:45 | 26.98589 | -79.89835 | 20175 ft | 406 kts | 162° |
| 2026-04-21 18:46 | 26.95910 | -79.88733 | 19639 ft | 402 kts | 162° |
| 2026-04-21 18:46 | 26.93282 | -79.87656 | 19135 ft | 401 kts | 162° |
| 2026-04-21 18:46 | 26.90729 | -79.86618 | 18595 ft | 391 kts | 161° |
| 2026-04-21 18:46 | 26.88219 | -79.85601 | 18037 ft | 378 kts | 162° |
| 2026-04-21 18:47 | 26.85756 | -79.84608 | 17319 ft | 372 kts | 162° |
| 2026-04-21 18:47 | 26.83320 | -79.83632 | 16863 ft | 372 kts | 162° |
| 2026-04-21 18:47 | 26.80886 | -79.82659 | 16418 ft | 371 kts | 161° |
| 2026-04-21 18:47 | 26.78467 | -79.81690 | 16065 ft | 367 kts | 161° |
| 2026-04-21 18:48 | 26.76086 | -79.80733 | 15590 ft | 362 kts | 161° |
| 2026-04-21 18:48 | 26.73724 | -79.79783 | 14983 ft | 356 kts | 162° |
| 2026-04-21 18:48 | 26.71324 | -79.79147 | 14534 ft | 353 kts | 175° |
| 2026-04-21 18:48 | 26.68878 | -79.79137 | 14175 ft | 350 kts | 188° |
| 2026-04-21 18:49 | 26.66503 | -79.79728 | 13640 ft | 349 kts | 201° |
| 2026-04-21 18:49 | 26.64238 | -79.80651 | 13322 ft | 343 kts | 201° |
| 2026-04-21 18:49 | 26.62769 | -79.81251 | 13242 ft | 336 kts | 201° |
| 2026-04-21 18:49 | 26.59858 | -79.82435 | 12581 ft | 330 kts | 202° |
| 2026-04-21 18:50 | 26.57706 | -79.83309 | 11934 ft | 327 kts | 201° |
| 2026-04-21 18:50 | 26.55591 | -79.84168 | 11471 ft | 322 kts | 201° |
| 2026-04-21 18:50 | 26.54211 | -79.84754 | 11210 ft | 317 kts | 204° |
| 2026-04-21 18:50 | 26.52191 | -79.85677 | 10786 ft | 309 kts | 204° |
| 2026-04-21 18:51 | 26.50232 | -79.86612 | 10414 ft | 305 kts | 205° |
| 2026-04-21 18:51 | 26.48292 | -79.87546 | 10038 ft | 303 kts | 206° |
| 2026-04-21 18:51 | 26.46363 | -79.88474 | 9620 ft | 303 kts | 205° |
| 2026-04-21 18:51 | 26.44421 | -79.89401 | 9294 ft | 301 kts | 204° |
| 2026-04-21 18:52 | 26.42504 | -79.90308 | 9044 ft | 298 kts | 205° |
| 2026-04-21 18:52 | 26.40601 | -79.91203 | 8661 ft | 294 kts | 204° |
| 2026-04-21 18:52 | 26.38728 | -79.92083 | 8163 ft | 290 kts | 205° |
| 2026-04-21 18:52 | 26.36954 | -79.93160 | 8023 ft | 292 kts | 212° |
| 2026-04-21 18:53 | 26.35197 | -79.94293 | 8035 ft | 293 kts | 211° |
| 2026-04-21 18:53 | 26.33428 | -79.95428 | 8038 ft | 292 kts | 211° |
| 2026-04-21 18:53 | 26.31668 | -79.96556 | 8036 ft | 293 kts | 210° |
| 2026-04-21 18:53 | 26.29905 | -79.97683 | 8036 ft | 293 kts | 211° |
| 2026-04-21 18:54 | 26.28135 | -79.98813 | 8037 ft | 293 kts | 212° |
| 2026-04-21 18:54 | 26.26375 | -79.99940 | 8037 ft | 292 kts | 212° |
| 2026-04-21 18:54 | 26.24617 | -80.01069 | 8036 ft | 293 kts | 211° |
| 2026-04-21 18:54 | 26.22846 | -80.02209 | 8037 ft | 292 kts | 211° |
| 2026-04-21 18:55 | 26.21084 | -80.03343 | 8037 ft | 291 kts | 211° |
| 2026-04-21 18:55 | 26.19389 | -80.04585 | 8034 ft | 290 kts | 223° |
| 2026-04-21 18:55 | 26.18046 | -80.06248 | 8038 ft | 289 kts | 238° |
| 2026-04-21 18:55 | 26.17161 | -80.08210 | 8030 ft | 284 kts | 252° |
| 2026-04-21 18:56 | 26.16549 | -80.10257 | 7913 ft | 276 kts | 254° |
| 2026-04-21 18:56 | 26.15947 | -80.12257 | 7695 ft | 272 kts | 254° |
| 2026-04-21 18:56 | 26.15354 | -80.14235 | 7328 ft | 265 kts | 256° |
| 2026-04-21 18:56 | 26.15031 | -80.16225 | 6968 ft | 257 kts | 268° |
| 2026-04-21 18:57 | 26.15027 | -80.18185 | 6608 ft | 251 kts | 273° |
| 2026-04-21 18:57 | 26.15041 | -80.20130 | 6232 ft | 254 kts | 273° |
| 2026-04-21 18:57 | 26.15051 | -80.22119 | 5863 ft | 260 kts | 271° |
| 2026-04-21 18:57 | 26.15060 | -80.24165 | 5488 ft | 268 kts | 272° |
| 2026-04-21 18:58 | 26.15069 | -80.26260 | 5118 ft | 273 kts | 275° |
| 2026-04-21 18:58 | 26.15093 | -80.28349 | 5016 ft | 264 kts | 272° |
| 2026-04-21 18:58 | 26.15104 | -80.30339 | 5009 ft | 250 kts | 274° |
| 2026-04-21 18:58 | 26.15097 | -80.32256 | 5018 ft | 250 kts | 273° |
| 2026-04-21 18:59 | 26.15079 | -80.34198 | 5007 ft | 249 kts | 272° |
| 2026-04-21 18:59 | 26.15051 | -80.36129 | 4764 ft | 247 kts | 271° |
| 2026-04-21 18:59 | 26.15019 | -80.38016 | 4529 ft | 243 kts | 272° |
| 2026-04-21 18:59 | 26.14984 | -80.39918 | 4178 ft | 245 kts | 271° |
| 2026-04-21 19:00 | 26.14946 | -80.41791 | 3917 ft | 242 kts | 271° |
| 2026-04-21 19:00 | 26.14907 | -80.43664 | 3614 ft | 241 kts | 272° |
| 2026-04-21 19:00 | 26.14867 | -80.45533 | 3312 ft | 240 kts | 273° |
| 2026-04-21 19:00 | 26.14828 | -80.47409 | 3023 ft | 244 kts | 271° |
| 2026-04-21 19:01 | 26.14789 | -80.49292 | 3017 ft | 244 kts | 272° |
| 2026-04-21 19:01 | 26.14495 | -80.51158 | 3011 ft | 248 kts | 245° |
| 2026-04-21 19:01 | 26.13422 | -80.52634 | 3016 ft | 245 kts | 211° |
| 2026-04-21 19:01 | 26.11874 | -80.53327 | 3020 ft | 237 kts | 187° |
| 2026-04-21 19:02 | 26.10262 | -80.53634 | 3015 ft | 234 kts | 183° |
| 2026-04-21 19:02 | 26.08642 | -80.53899 | 3015 ft | 235 kts | 183° |
| 2026-04-21 19:02 | 26.07071 | -80.53937 | 3007 ft | 225 kts | 159° |
| 2026-04-21 19:02 | 26.05775 | -80.53124 | 3011 ft | 209 kts | 125° |
| 2026-04-21 19:03 | 26.05200 | -80.51721 | 3010 ft | 199 kts | 90° |
| 2026-04-21 19:03 | 26.05553 | -80.50276 | 3017 ft | 199 kts | 57° |
| 2026-04-21 19:03 | 26.06243 | -80.48959 | 3004 ft | 198 kts | 70° |
| 2026-04-21 19:03 | 26.06482 | -80.47444 | 3009 ft | 199 kts | 82° |
| 2026-04-21 19:04 | 26.06631 | -80.45930 | 3008 ft | 198 kts | 81° |
| 2026-04-21 19:04 | 26.06773 | -80.44428 | 3009 ft | 189 kts | 81° |
| 2026-04-21 19:04 | 26.06911 | -80.42960 | 3007 ft | 190 kts | 82° |
| 2026-04-21 19:04 | 26.07047 | -80.41506 | 3011 ft | 191 kts | 81° |
| 2026-04-21 19:05 | 26.07182 | -80.40058 | 3006 ft | 183 kts | 80° |
| 2026-04-21 19:05 | 26.07306 | -80.38693 | 3006 ft | 173 kts | 81° |
| 2026-04-21 19:05 | 26.07428 | -80.37379 | 3028 ft | 170 kts | 82° |
| 2026-04-21 19:05 | 26.07548 | -80.36084 | 3011 ft | 166 kts | 81° |
| 2026-04-21 19:06 | 26.07667 | -80.34804 | 3006 ft | 163 kts | 81° |
| 2026-04-21 19:06 | 26.07778 | -80.33535 | 2997 ft | 166 kts | 84° |
| 2026-04-21 19:06 | 26.07773 | -80.32241 | 3000 ft | 168 kts | 86° |
| 2026-04-21 19:06 | 26.07767 | -80.30929 | 2999 ft | 170 kts | 86° |
| 2026-04-21 19:07 | 26.07759 | -80.29631 | 2950 ft | 161 kts | 87° |
| 2026-04-21 19:07 | 26.07752 | -80.28466 | 2821 ft | 138 kts | 86° |
| 2026-04-21 19:07 | 26.07747 | -80.27436 | 2405 ft | 132 kts | 85° |
| 2026-04-21 19:07 | 26.07743 | -80.26409 | 1967 ft | 132 kts | 84° |
| 2026-04-21 19:08 | 26.07738 | -80.25395 | 1723 ft | 130 kts | 85° |
| 2026-04-21 19:08 | 26.07734 | -80.24367 | 1574 ft | 134 kts | 85° |
| 2026-04-21 19:08 | 26.07729 | -80.23335 | 1296 ft | 134 kts | 85° |
| 2026-04-21 19:08 | 26.07724 | -80.22296 | 1078 ft | 133 kts | 85° |
| 2026-04-21 19:09 | 26.07719 | -80.21287 | 896 ft | 132 kts | 85° |
| 2026-04-21 19:09 | 26.07714 | -80.20246 | 707 ft | 135 kts | 85° |
| 2026-04-21 19:09 | 26.07708 | -80.19204 | 528 ft | 134 kts | 89° |
| 2026-04-21 19:09 | 26.07704 | -80.18162 | 362 ft | 135 kts | 86° |
| 2026-04-21 19:10 | 26.07698 | -80.17107 | 208 ft | 133 kts | 86° |
| 2026-04-21 19:10 | 26.07689 | -80.16094 | 32 ft | 126 kts | 85° |
| 2026-04-21 19:10 | 26.07689 | -80.15298 | 18 ft | 78 kts | 91° |
| 2026-04-21 19:10 | 26.07684 | -80.14864 | 24 ft | 30 kts | 91° |
| 2026-04-21 19:11 | 26.07648 | -80.14644 | 26 ft | 28 kts | 105° |
| 2026-04-21 19:11 | 26.07592 | -80.14539 | 25 ft | 15 kts | 127° |
| 2026-04-21 19:11 | 26.07500 | -80.14523 | 27 ft | 15 kts | 217° |
| 2026-04-21 19:11 | 26.07489 | -80.14641 | 25 ft | 17 kts | 270° |
| 2026-04-21 19:12 | 26.07476 | -80.14775 | 24 ft | 18 kts | 237° |
| 2026-04-21 19:12 | 26.07381 | -80.14854 | 21 ft | 17 kts | 184° |
| 2026-04-21 19:12 | 26.07262 | -80.14855 | 22 ft | 18 kts | 180° |
| 2026-04-21 19:12 | 26.07131 | -80.14856 | 21 ft | 17 kts | 180° |
| 2026-04-21 19:13 | 26.07037 | -80.14806 | 19 ft | 17 kts | 135° |
| 2026-04-21 19:13 | 26.06941 | -80.14721 | 19 ft | 19 kts | 147° |
| 2026-04-21 19:13 | 26.06839 | -80.14611 | 17 ft | 22 kts | 136° |
| 2026-04-21 19:13 | 26.06754 | -80.14498 | 16 ft | 17 kts | 102° |
| 2026-04-21 19:14 | 26.06752 | -80.14391 | 18 ft | 10 kts | 91° |
| 2026-04-21 19:14 | 26.06758 | -80.14304 | 20 ft | 12 kts | 65° |
| 2026-04-21 19:14 | 26.06834 | -80.14257 | 18 ft | 12 kts | 9° |
| 2026-04-21 19:14 | 26.06878 | -80.14256 | 18 ft | 3 kts | 359° |
| 2026-04-21 19:15 | 26.06888 | -80.14256 | 18 ft | 0 kts | 359° |